Bad Sobernheim-Domberg Airport EDRS

Flugplatz Daten

Name: Bad Sobernheim-Domberg Airport

Ident: EDRS

Lat: 49,79083252

Long: 7,666110992

Platzhöhe: 810 ft

IataCode:

City: Bad Sobernheim

Metar

2022/02/05 15:50
LTCK 051550Z 27008KT 9999 FEW035 M07/M12 Q1016 REDRSN RMK RWY11 29005KT

Taf

Gewünschte Webcam nicht vorhanden? Dann fügen Sie eine hinzu. Sie wird dann so schnell wie möglich freigeschaltet
Url: Title: